createdAt,value
2022-10-22T00:01:24.740Z,8.00
2022-10-22T00:03:53.196Z,8.27
2022-10-22T00:06:21.627Z,8.01
2022-10-22T00:08:50.241Z,8.23
2022-10-22T00:11:20.964Z,7.94
2022-10-22T00:13:51.149Z,7.96
2022-10-22T00:16:19.774Z,7.93
2022-10-22T00:18:48.196Z,8.12
2022-10-22T00:21:16.732Z,8.47
2022-10-22T00:23:45.308Z,8.19
2022-10-22T00:26:14.253Z,8.09
2022-10-22T00:28:42.815Z,8.24
2022-10-22T00:31:12.591Z,8.30
2022-10-22T00:33:41.004Z,8.60
2022-10-22T00:36:10.279Z,8.49
2022-10-22T00:38:38.660Z,8.46
2022-10-22T00:41:07.487Z,8.23
2022-10-22T00:43:36.016Z,8.74
2022-10-22T00:46:04.430Z,8.58
2022-10-22T00:48:34.717Z,8.39
2022-10-22T00:51:07.820Z,8.65
2022-10-22T00:53:40.328Z,8.45
2022-10-22T00:56:10.520Z,8.44
2022-10-22T00:58:45.055Z,8.74
2022-10-22T01:01:18.219Z,8.59
2022-10-22T01:03:48.299Z,8.73
2022-10-22T01:06:24.221Z,7.99
2022-10-22T01:09:03.215Z,8.32
2022-10-22T01:11:42.971Z,8.72
2022-10-22T01:14:19.897Z,8.80
2022-10-22T01:16:55.611Z,8.82
2022-10-22T01:19:41.262Z,8.91
2022-10-22T01:22:19.137Z,9.09
2022-10-22T01:25:06.865Z,9.20
2022-10-22T01:27:46.103Z,8.89
2022-10-22T01:30:18.488Z,8.65
2022-10-22T01:32:50.493Z,8.86
2022-10-22T01:35:25.954Z,8.87
2022-10-22T01:37:57.627Z,8.68
2022-10-22T01:40:27.625Z,8.36
2022-10-22T01:42:58.222Z,8.31
2022-10-22T01:45:30.167Z,8.31
2022-10-22T01:48:06.360Z,8.45
2022-10-22T01:50:54.566Z,8.74
2022-10-22T01:53:32.837Z,8.57
2022-10-22T01:56:14.353Z,8.36
2022-10-22T01:58:53.003Z,8.42
2022-10-22T02:01:32.737Z,8.39
2022-10-22T02:04:07.497Z,8.54
2022-10-22T02:06:38.727Z,8.57
2022-10-22T02:09:09.006Z,8.28
2022-10-22T02:11:38.185Z,8.54
2022-10-22T02:14:08.829Z,8.50
2022-10-22T02:16:43.863Z,8.71
2022-10-22T02:19:18.185Z,8.47
2022-10-22T02:21:47.210Z,8.11
2022-10-22T02:24:16.387Z,8.03
2022-10-22T02:26:48.028Z,8.59
2022-10-22T02:29:23.187Z,8.52
2022-10-22T02:31:54.983Z,8.53
2022-10-22T02:34:27.342Z,8.66
2022-10-22T02:36:56.843Z,8.50
2022-10-22T02:39:25.717Z,8.45
2022-10-22T02:41:55.671Z,9.17
2022-10-22T02:44:24.205Z,8.44
2022-10-22T02:46:54.126Z,8.66
2022-10-22T02:49:22.596Z,8.63
2022-10-22T02:51:51.012Z,8.71
2022-10-22T02:54:19.416Z,8.67
2022-10-22T02:56:47.857Z,8.59
2022-10-22T02:59:16.202Z,8.49
2022-10-22T03:01:44.669Z,8.32
2022-10-22T03:04:14.479Z,8.55
2022-10-22T03:06:44.785Z,8.52
2022-10-22T03:09:13.296Z,8.45
2022-10-22T03:11:41.731Z,8.37
2022-10-22T03:14:10.464Z,8.54
2022-10-22T03:16:38.702Z,9.04
2022-10-22T03:19:07.030Z,8.72
2022-10-22T03:21:40.461Z,8.47
2022-10-22T03:24:12.684Z,8.69
2022-10-22T03:26:42.868Z,8.91
2022-10-22T03:29:12.908Z,8.88
2022-10-22T03:31:41.475Z,9.00
2022-10-22T03:34:12.019Z,8.87
2022-10-22T03:36:42.524Z,8.75
2022-10-22T03:39:14.280Z,8.61
2022-10-22T03:41:44.478Z,8.50
2022-10-22T03:44:13.504Z,8.21
2022-10-22T03:46:41.971Z,8.46
2022-10-22T03:49:10.375Z,8.68
2022-10-22T03:51:38.794Z,8.49
2022-10-22T03:54:08.666Z,8.21
2022-10-22T03:56:37.118Z,8.12
2022-10-22T03:59:06.067Z,8.01
2022-10-22T04:01:34.574Z,7.98
2022-10-22T04:04:03.084Z,7.96
2022-10-22T04:06:32.125Z,7.91
2022-10-22T04:09:01.459Z,8.00
2022-10-22T04:11:31.429Z,7.88
2022-10-22T04:13:59.881Z,7.71
2022-10-22T04:16:31.571Z,7.48
2022-10-22T04:19:00.301Z,7.44
2022-10-22T04:21:28.668Z,7.26
2022-10-22T04:23:57.454Z,7.40
2022-10-22T04:26:26.611Z,7.39
2022-10-22T04:28:56.432Z,7.38
2022-10-22T04:31:26.859Z,7.40
2022-10-22T04:33:56.099Z,7.35
2022-10-22T04:36:25.692Z,7.15
2022-10-22T04:38:55.992Z,6.92
2022-10-22T04:41:26.903Z,6.78
2022-10-22T04:43:57.871Z,6.98
2022-10-22T04:46:27.503Z,7.10
2022-10-22T04:48:56.038Z,7.28
2022-10-22T04:51:26.501Z,7.33
2022-10-22T04:53:55.668Z,7.05
2022-10-22T04:56:26.105Z,7.33
2022-10-22T04:58:58.927Z,7.58
2022-10-22T05:01:29.462Z,7.55
2022-10-22T05:03:59.865Z,7.40
2022-10-22T05:06:32.394Z,7.43
2022-10-22T05:09:04.877Z,7.42
2022-10-22T05:11:35.357Z,7.16
2022-10-22T05:14:07.924Z,7.67
2022-10-22T05:16:38.288Z,7.79
2022-10-22T05:19:07.408Z,7.76
2022-10-22T05:21:35.846Z,8.13
2022-10-22T05:24:08.154Z,7.58
2022-10-22T05:26:36.769Z,7.31
2022-10-22T05:29:06.555Z,7.33
2022-10-22T05:31:35.536Z,7.25
2022-10-22T05:34:03.687Z,7.60
2022-10-22T05:36:32.194Z,7.42
2022-10-22T05:39:00.903Z,7.33
2022-10-22T05:41:30.461Z,7.57
2022-10-22T05:44:00.071Z,7.59
2022-10-22T05:46:32.591Z,7.52
2022-10-22T05:49:02.485Z,7.47
2022-10-22T05:51:34.412Z,7.74
2022-10-22T05:54:04.440Z,7.82
2022-10-22T05:56:34.104Z,7.67
2022-10-22T06:01:37.940Z,7.84
2022-10-22T06:04:09.152Z,8.15
2022-10-22T06:06:40.805Z,8.07
2022-10-22T06:09:19.705Z,7.92
2022-10-22T06:11:51.083Z,7.76
2022-10-22T06:14:39.150Z,7.99
2022-10-22T06:17:09.198Z,7.95
2022-10-22T06:19:37.680Z,8.12
2022-10-22T06:22:15.648Z,8.35
2022-10-22T06:24:45.181Z,8.34
2022-10-22T06:27:13.763Z,7.93
2022-10-22T06:29:42.189Z,7.87
2022-10-22T06:32:12.014Z,8.22
2022-10-22T06:34:40.425Z,8.17
2022-10-22T06:37:08.819Z,7.88
2022-10-22T06:39:37.240Z,7.74
2022-10-22T06:42:06.231Z,7.72
2022-10-22T06:44:36.648Z,7.45
2022-10-22T06:47:06.111Z,7.78
2022-10-22T06:49:36.111Z,7.82
2022-10-22T06:52:04.918Z,8.23
2022-10-22T06:54:33.702Z,8.30
2022-10-22T06:57:03.102Z,8.42
2022-10-22T06:59:32.611Z,8.30
2022-10-22T07:02:01.885Z,8.28
2022-10-22T07:04:32.194Z,8.58
2022-10-22T07:07:02.913Z,8.63
2022-10-22T07:09:32.118Z,8.50
2022-10-22T07:12:01.119Z,8.88
2022-10-22T07:14:29.763Z,8.75
2022-10-22T07:16:58.774Z,8.46
2022-10-22T07:19:27.925Z,8.15
2022-10-22T07:21:58.909Z,8.38
2022-10-22T07:24:29.737Z,8.50
2022-10-22T07:26:58.934Z,8.17
2022-10-22T07:29:31.730Z,8.46
2022-10-22T07:32:01.259Z,9.40
2022-10-22T07:34:30.733Z,8.88
2022-10-22T07:37:00.739Z,8.85
2022-10-22T07:39:31.368Z,8.65
2022-10-22T07:42:00.824Z,8.69
2022-10-22T07:44:30.608Z,8.71
2022-10-22T07:47:00.029Z,9.10
2022-10-22T07:49:29.268Z,8.91
2022-10-22T07:51:58.641Z,9.50
2022-10-22T07:54:27.187Z,9.56
2022-10-22T07:56:57.728Z,9.28
2022-10-22T07:59:27.527Z,9.41
2022-10-22T08:01:56.468Z,9.50
2022-10-22T08:04:27.794Z,9.87
2022-10-22T08:06:56.902Z,9.18
2022-10-22T08:09:28.329Z,9.29
2022-10-22T08:12:01.420Z,9.01
2022-10-22T08:14:31.243Z,9.22
2022-10-22T08:17:00.370Z,9.11
2022-10-22T08:19:29.998Z,9.11
2022-10-22T08:21:58.911Z,9.35
2022-10-22T08:24:28.342Z,9.37
2022-10-22T08:26:57.614Z,9.29
2022-10-22T08:29:28.682Z,9.20
2022-10-22T08:31:58.189Z,9.20
2022-10-22T08:34:27.351Z,9.58
2022-10-22T08:36:55.951Z,9.89
2022-10-22T08:39:28.038Z,9.46
2022-10-22T08:42:07.860Z,9.51
2022-10-22T08:45:03.296Z,9.84
2022-10-22T08:47:59.559Z,9.86
2022-10-22T08:50:37.258Z,9.66
2022-10-22T08:53:10.132Z,9.53
2022-10-22T08:55:42.678Z,9.59
2022-10-22T08:58:20.994Z,9.80
2022-10-22T09:01:00.493Z,10.81
2022-10-22T09:03:50.427Z,9.98
2022-10-22T09:06:24.350Z,10.01
2022-10-22T09:08:55.035Z,9.75
2022-10-22T09:11:29.325Z,10.00
2022-10-22T09:13:59.403Z,10.17
2022-10-22T09:16:38.324Z,10.79
2022-10-22T09:19:20.348Z,10.94
2022-10-22T09:22:00.647Z,10.40
2022-10-22T09:24:37.813Z,10.53
2022-10-22T09:27:14.267Z,10.24
2022-10-22T09:29:44.032Z,10.52
2022-10-22T09:32:15.479Z,10.75
2022-10-22T09:34:46.676Z,10.28
2022-10-22T09:37:18.719Z,10.15
2022-10-22T09:39:53.953Z,10.79
2022-10-22T09:42:25.115Z,10.79
2022-10-22T09:44:57.054Z,10.96
2022-10-22T09:50:31.311Z,11.33
2022-10-22T09:53:03.530Z,11.52
2022-10-22T09:55:33.387Z,11.75
2022-10-22T09:58:03.008Z,11.87
2022-10-22T10:00:33.616Z,10.68
2022-10-22T10:03:04.811Z,10.01
2022-10-22T10:05:36.642Z,10.13
2022-10-22T10:08:16.173Z,10.17
2022-10-22T10:10:50.129Z,10.37
2022-10-22T10:13:40.033Z,10.26
2022-10-22T10:16:29.010Z,10.47
2022-10-22T10:19:14.650Z,10.37
2022-10-22T10:21:56.612Z,10.09
2022-10-22T10:24:32.306Z,9.81
2022-10-22T10:27:07.198Z,9.74
2022-10-22T10:29:47.480Z,9.28
2022-10-22T10:32:33.026Z,9.40
2022-10-22T10:35:17.783Z,10.00
2022-10-22T10:37:53.514Z,10.12
2022-10-22T10:40:29.954Z,10.21
2022-10-22T10:43:08.424Z,9.85
2022-10-22T10:45:55.523Z,9.53
2022-10-22T10:48:38.281Z,10.01
2022-10-22T10:51:24.495Z,9.79
2022-10-22T10:54:06.232Z,9.38
2022-10-22T10:56:40.941Z,9.07
2022-10-22T10:59:17.871Z,8.97
2022-10-22T11:01:57.467Z,9.04
2022-10-22T11:05:03.467Z,9.30
2022-10-22T11:07:39.676Z,9.10
2022-10-22T11:10:17.041Z,9.05
2022-10-22T11:12:49.054Z,9.47
2022-10-22T11:15:25.799Z,9.48
2022-10-22T11:17:59.414Z,9.12
2022-10-22T11:20:36.908Z,9.04
2022-10-22T11:23:19.465Z,9.27
2022-10-22T11:25:51.579Z,9.34
2022-10-22T11:28:25.904Z,9.33
2022-10-22T11:31:01.663Z,9.34
2022-10-22T11:33:38.951Z,9.54
2022-10-22T11:36:09.638Z,9.51
2022-10-22T11:38:39.735Z,9.24
2022-10-22T11:41:13.906Z,9.64
2022-10-22T11:44:06.669Z,9.64
2022-10-22T11:46:46.977Z,10.03
2022-10-22T11:49:25.776Z,9.96
2022-10-22T11:52:23.237Z,9.93
2022-10-22T11:54:57.805Z,9.93
2022-10-22T11:57:37.740Z,9.86
2022-10-22T12:00:13.974Z,9.83
2022-10-22T12:02:45.557Z,9.79
2022-10-22T12:05:44.807Z,9.82
2022-10-22T12:08:24.404Z,9.80
2022-10-22T12:11:07.249Z,9.95
2022-10-22T12:13:58.730Z,10.24
2022-10-22T12:16:44.121Z,9.90
2022-10-22T12:19:19.930Z,9.64
2022-10-22T12:21:53.144Z,9.39
2022-10-22T12:24:24.490Z,9.59
2022-10-22T12:26:54.382Z,8.90
2022-10-22T12:29:26.691Z,9.32
2022-10-22T12:31:56.046Z,9.29
2022-10-22T12:34:26.375Z,9.11
2022-10-22T12:36:55.166Z,9.33
2022-10-22T12:39:27.538Z,9.18
2022-10-22T12:41:57.369Z,9.23
2022-10-22T12:44:25.893Z,9.40
2022-10-22T12:46:57.065Z,9.29
2022-10-22T12:49:33.246Z,9.15
2022-10-22T12:52:04.376Z,9.21
2022-10-22T12:54:34.792Z,8.90
2022-10-22T12:57:05.022Z,8.89
2022-10-22T12:59:36.937Z,8.88
2022-10-22T13:02:13.643Z,8.92
2022-10-22T13:04:42.157Z,8.90
2022-10-22T13:07:22.280Z,8.97
2022-10-22T13:10:00.346Z,9.12
2022-10-22T13:12:37.617Z,9.22
2022-10-22T13:15:21.670Z,9.24
2022-10-22T13:17:50.992Z,9.37
2022-10-22T13:20:22.911Z,9.64
2022-10-22T13:22:56.122Z,9.52
2022-10-22T13:25:27.014Z,9.13
2022-10-22T13:27:58.827Z,9.36
2022-10-22T13:30:30.619Z,9.49
2022-10-22T13:33:01.244Z,8.97
2022-10-22T13:35:33.390Z,8.87
2022-10-22T13:38:02.131Z,8.61
2022-10-22T13:40:31.006Z,9.19
2022-10-22T13:43:00.506Z,9.99
2022-10-22T13:45:29.147Z,9.56
2022-10-22T13:48:00.510Z,9.34
2022-10-22T13:50:29.150Z,9.69
2022-10-22T13:52:59.513Z,8.99
2022-10-22T13:55:30.254Z,9.22
2022-10-22T13:58:05.339Z,8.93
2022-10-22T14:00:33.869Z,8.75
2022-10-22T14:03:02.427Z,8.79
2022-10-22T14:05:32.677Z,8.67
2022-10-22T14:08:04.661Z,8.60
2022-10-22T14:10:33.280Z,8.62
2022-10-22T14:13:03.216Z,8.68
2022-10-22T14:15:31.745Z,8.90
2022-10-22T14:18:01.642Z,8.78
2022-10-22T14:20:33.426Z,8.68
2022-10-22T14:23:13.058Z,8.82
2022-10-22T14:25:42.198Z,9.03
2022-10-22T14:28:13.076Z,9.03
2022-10-22T14:30:42.153Z,8.89
2022-10-22T14:33:18.493Z,9.21
2022-10-22T14:35:47.175Z,9.15
2022-10-22T14:38:15.800Z,9.20
2022-10-22T14:40:44.981Z,9.00
2022-10-22T14:43:25.853Z,8.61
2022-10-22T14:45:54.396Z,8.90
2022-10-22T14:48:22.921Z,8.84
2022-10-22T14:50:51.736Z,9.03
2022-10-22T14:53:19.958Z,9.30
2022-10-22T14:55:49.312Z,9.08
2022-10-22T14:58:21.570Z,8.79
2022-10-22T15:00:50.200Z,8.72
2022-10-22T15:03:18.684Z,9.20
2022-10-22T15:05:47.177Z,8.90
2022-10-22T15:08:16.070Z,9.25
2022-10-22T15:10:44.504Z,9.21
2022-10-22T15:13:13.116Z,8.96
2022-10-22T15:15:43.042Z,8.67
2022-10-22T15:18:11.605Z,8.78
2022-10-22T15:20:40.168Z,8.75
2022-10-22T15:23:08.588Z,8.92
2022-10-22T15:25:37.021Z,9.05
2022-10-22T15:28:09.893Z,8.96
2022-10-22T15:30:39.468Z,9.15
2022-10-22T15:33:14.196Z,9.20
2022-10-22T15:35:45.343Z,8.44
2022-10-22T15:38:19.038Z,7.80
2022-10-22T15:40:47.664Z,7.73
2022-10-22T15:43:16.473Z,7.95
2022-10-22T15:45:44.738Z,8.62
2022-10-22T15:48:15.529Z,8.59
2022-10-22T15:50:46.984Z,8.28
2022-10-22T15:53:15.542Z,8.44
2022-10-22T15:55:50.168Z,8.60
2022-10-22T15:58:18.907Z,8.75
2022-10-22T16:00:47.485Z,8.79
2022-10-22T16:03:17.421Z,8.79
2022-10-22T16:05:54.618Z,8.84
2022-10-22T16:08:23.386Z,8.66
2022-10-22T16:10:51.844Z,8.86
2022-10-22T16:13:24.621Z,9.08
2022-10-22T16:15:56.295Z,9.25
2022-10-22T16:18:29.348Z,9.15
2022-10-22T16:20:59.211Z,8.33
2022-10-22T16:23:33.492Z,7.97
2022-10-22T16:26:03.396Z,8.01
2022-10-22T16:31:06.159Z,8.75
2022-10-22T16:33:42.932Z,8.43
2022-10-22T16:36:17.988Z,7.77
2022-10-22T16:38:47.420Z,7.39
2022-10-22T16:41:17.893Z,7.60
2022-10-22T16:43:48.551Z,7.73
2022-10-22T16:46:19.317Z,7.81
2022-10-22T16:48:52.704Z,8.08
2022-10-22T16:51:25.505Z,7.84
2022-10-22T16:53:57.905Z,8.07
2022-10-22T16:56:27.578Z,7.89
2022-10-22T16:58:58.820Z,8.16
2022-10-22T17:01:29.304Z,8.19
2022-10-22T17:04:00.855Z,8.04
2022-10-22T17:06:29.872Z,7.84
2022-10-22T17:08:58.678Z,8.09
2022-10-22T17:11:30.147Z,8.26
2022-10-22T17:13:59.141Z,8.30
2022-10-22T17:16:28.360Z,8.47
2022-10-22T17:18:59.474Z,8.39
2022-10-22T17:21:28.421Z,8.38
2022-10-22T17:23:58.649Z,8.40
2022-10-22T17:26:28.009Z,8.04
2022-10-22T17:28:58.204Z,8.36
2022-10-22T17:31:29.493Z,8.24
2022-10-22T17:34:04.835Z,8.30
2022-10-22T17:36:35.902Z,8.03
2022-10-22T17:39:13.371Z,8.09
2022-10-22T17:41:42.753Z,8.01
2022-10-22T17:44:13.816Z,7.93
2022-10-22T17:46:44.107Z,8.29
2022-10-22T17:49:21.441Z,8.18
2022-10-22T17:51:53.223Z,8.29
2022-10-22T17:54:22.716Z,8.31
2022-10-22T17:56:56.575Z,8.24
2022-10-22T17:59:26.595Z,8.27
2022-10-22T18:01:59.474Z,8.14
2022-10-22T18:04:31.954Z,8.13
2022-10-22T18:07:01.116Z,7.61
2022-10-22T18:09:30.378Z,8.05
2022-10-22T18:11:59.443Z,7.32
2022-10-22T18:14:29.144Z,7.66
2022-10-22T18:16:58.462Z,7.74
2022-10-22T18:19:27.607Z,8.30
2022-10-22T18:22:01.762Z,7.93
2022-10-22T18:24:31.261Z,7.47
2022-10-22T18:27:00.350Z,7.62
2022-10-22T18:29:29.657Z,7.67
2022-10-22T18:31:58.266Z,8.06
2022-10-22T18:34:27.292Z,7.79
2022-10-22T18:36:57.527Z,7.74
2022-10-22T18:39:33.536Z,8.02
2022-10-22T18:42:06.422Z,7.83
2022-10-22T18:44:36.517Z,7.82
2022-10-22T18:47:06.369Z,7.78
2022-10-22T18:49:35.481Z,8.05
2022-10-22T18:52:05.861Z,8.07
2022-10-22T18:54:34.717Z,8.08
2022-10-22T18:57:03.330Z,8.06
2022-10-22T18:59:33.428Z,7.68
2022-10-22T19:02:03.344Z,7.76
2022-10-22T19:04:36.877Z,8.26
2022-10-22T19:09:44.377Z,8.01
2022-10-22T19:12:15.180Z,8.29
2022-10-22T19:14:44.175Z,8.16
2022-10-22T19:17:13.763Z,8.46
2022-10-22T19:19:43.421Z,7.69
2022-10-22T19:22:13.749Z,7.76
2022-10-22T19:24:42.648Z,7.71
2022-10-22T19:27:10.968Z,8.06
2022-10-22T19:29:39.590Z,8.04
2022-10-22T19:34:41.567Z,7.57
2022-10-22T19:37:10.368Z,7.77
2022-10-22T19:39:40.008Z,7.85
2022-10-22T19:42:08.617Z,7.61
2022-10-22T19:44:37.405Z,7.78
2022-10-22T19:47:05.992Z,7.83
2022-10-22T19:49:34.974Z,7.79
2022-10-22T19:52:03.770Z,7.75
2022-10-22T19:54:32.658Z,7.84
2022-10-22T19:57:04.291Z,7.70
2022-10-22T19:59:34.010Z,7.76
2022-10-22T20:02:02.591Z,7.62
2022-10-22T20:04:31.042Z,7.82
2022-10-22T20:06:59.548Z,7.62
2022-10-22T20:09:28.080Z,7.73
2022-10-22T20:11:56.594Z,7.78
2022-10-22T20:14:26.927Z,7.62
2022-10-22T20:16:58.840Z,7.42
2022-10-22T20:19:31.778Z,7.79
2022-10-22T20:22:00.577Z,8.12
2022-10-22T20:24:31.517Z,7.94
2022-10-22T20:27:00.190Z,7.73
2022-10-22T20:29:33.524Z,7.78
2022-10-22T20:32:03.338Z,7.98
2022-10-22T20:34:34.231Z,8.24
2022-10-22T20:37:03.432Z,8.33
2022-10-22T20:39:31.915Z,8.32
2022-10-22T20:42:00.294Z,8.11
2022-10-22T20:44:30.154Z,7.91
2022-10-22T20:46:58.776Z,7.94
2022-10-22T20:49:27.812Z,8.20
2022-10-22T20:51:56.212Z,8.07
2022-10-22T20:54:24.539Z,8.17
2022-10-22T20:56:53.103Z,7.70
2022-10-22T20:59:22.018Z,7.64
2022-10-22T21:01:53.540Z,7.96
2022-10-22T21:04:23.115Z,7.84
2022-10-22T21:06:52.359Z,8.18
2022-10-22T21:09:21.192Z,7.97
2022-10-22T21:11:49.421Z,8.15
2022-10-22T21:14:20.360Z,7.60
2022-10-22T21:16:52.965Z,7.91
2022-10-22T21:19:22.991Z,7.76
2022-10-22T21:21:51.433Z,8.00
2022-10-22T21:24:24.665Z,7.86
2022-10-22T21:26:54.291Z,7.58
2022-10-22T21:29:22.814Z,7.71
2022-10-22T21:31:53.835Z,8.03
2022-10-22T21:34:22.278Z,8.00
2022-10-22T21:36:50.684Z,7.92
2022-10-22T21:39:19.128Z,8.15
2022-10-22T21:41:47.495Z,8.01
2022-10-22T21:44:15.908Z,8.02
2022-10-22T21:46:44.273Z,7.65
2022-10-22T21:49:14.577Z,7.60
2022-10-22T21:51:44.839Z,7.53
2022-10-22T21:54:13.829Z,7.90
2022-10-22T21:56:42.542Z,7.83
2022-10-22T21:59:10.955Z,7.58
2022-10-22T22:01:39.420Z,8.05
2022-10-22T22:04:07.971Z,7.58
2022-10-22T22:06:37.949Z,8.28
2022-10-22T22:09:06.920Z,8.25
2022-10-22T22:11:36.753Z,8.07
2022-10-22T22:14:05.142Z,7.90
2022-10-22T22:16:35.243Z,8.18
2022-10-22T22:19:06.408Z,8.43
2022-10-22T22:21:35.699Z,8.44
2022-10-22T22:24:06.462Z,8.39
2022-10-22T22:26:35.434Z,7.59
2022-10-22T22:29:03.557Z,8.39
2022-10-22T22:31:33.436Z,8.04
2022-10-22T22:34:02.917Z,8.46
2022-10-22T22:36:35.558Z,8.39
2022-10-22T22:39:09.587Z,7.97
2022-10-22T22:41:38.325Z,7.98
2022-10-22T22:44:06.938Z,7.72
2022-10-22T22:46:35.656Z,7.84
2022-10-22T22:49:04.898Z,8.11
2022-10-22T22:51:33.713Z,7.50
2022-10-22T22:54:02.359Z,8.45
2022-10-22T22:56:34.368Z,8.42
2022-10-22T22:59:04.123Z,8.07
2022-10-22T23:01:34.410Z,8.14
2022-10-22T23:04:05.449Z,8.08
2022-10-22T23:06:36.351Z,8.03
2022-10-22T23:09:06.270Z,7.97
2022-10-22T23:11:36.369Z,7.86
2022-10-22T23:14:06.959Z,8.15
2022-10-22T23:16:37.431Z,7.97
2022-10-22T23:19:06.722Z,8.16
2022-10-22T23:21:37.262Z,8.21
2022-10-22T23:24:09.322Z,8.16
2022-10-22T23:26:41.817Z,8.17
2022-10-22T23:29:13.907Z,7.92
2022-10-22T23:31:43.112Z,7.90
2022-10-22T23:34:12.877Z,7.77
2022-10-22T23:36:41.280Z,7.94
2022-10-22T23:39:11.809Z,7.63
2022-10-22T23:41:42.051Z,8.06
2022-10-22T23:44:11.320Z,7.89
2022-10-22T23:46:39.906Z,7.85
2022-10-22T23:49:10.451Z,8.25
2022-10-22T23:51:39.707Z,7.99
2022-10-22T23:54:10.348Z,8.14
2022-10-22T23:56:38.855Z,7.92
2022-10-22T23:59:09.408Z,8.44
